createdAt,value
2018-09-09T00:02:27.118Z,20.13
2018-09-09T00:04:58.910Z,20.30
2018-09-09T00:07:30.442Z,21.80
2018-09-09T00:10:01.809Z,20.63
2018-09-09T00:12:33.477Z,20.97
2018-09-09T00:15:05.001Z,19.87
2018-09-09T00:17:36.315Z,19.57
2018-09-09T00:20:06.820Z,19.37
2018-09-09T00:22:38.389Z,19.47
2018-09-09T00:25:09.761Z,18.97
2018-09-09T00:27:40.823Z,18.33
2018-09-09T00:30:12.259Z,18.30
2018-09-09T00:32:43.795Z,18.87
2018-09-09T00:35:14.801Z,17.77
2018-09-09T00:37:46.973Z,18.83
2018-09-09T00:40:18.362Z,18.03
2018-09-09T00:42:49.521Z,18.40
2018-09-09T00:45:20.857Z,17.87
2018-09-09T00:47:52.500Z,18.83
2018-09-09T00:50:28.592Z,18.87
2018-09-09T00:53:04.819Z,19.27
2018-09-09T00:55:36.002Z,19.57
2018-09-09T00:58:07.622Z,20.00
2018-09-09T01:00:44.038Z,20.60
2018-09-09T01:03:15.451Z,21.23
2018-09-09T01:05:47.017Z,23.20
2018-09-09T01:08:18.036Z,24.27
2018-09-09T01:10:49.031Z,21.07
2018-09-09T01:13:20.988Z,21.13
2018-09-09T01:15:52.292Z,19.20
2018-09-09T01:18:24.214Z,19.93
2018-09-09T01:20:55.374Z,20.57
2018-09-09T01:23:26.035Z,21.20
2018-09-09T01:25:57.124Z,20.80
2018-09-09T01:28:28.445Z,21.93
2018-09-09T01:30:59.449Z,22.10
2018-09-09T01:33:30.854Z,22.87
2018-09-09T01:36:02.316Z,22.13
2018-09-09T01:38:34.026Z,23.10
2018-09-09T01:41:05.195Z,23.60
2018-09-09T01:43:36.482Z,22.40
2018-09-09T01:46:07.877Z,20.03
2018-09-09T01:48:38.914Z,21.60
2018-09-09T01:51:10.421Z,22.90
2018-09-09T01:53:42.120Z,22.70
2018-09-09T01:56:13.452Z,23.60
2018-09-09T01:58:44.998Z,23.57
2018-09-09T02:01:16.376Z,21.57
2018-09-09T02:03:48.234Z,21.83
2018-09-09T02:06:19.857Z,21.10
2018-09-09T02:08:50.737Z,22.57
2018-09-09T02:11:21.789Z,21.77
2018-09-09T02:13:53.655Z,21.97
2018-09-09T02:16:25.273Z,22.73
2018-09-09T02:18:56.757Z,21.43
2018-09-09T02:21:28.078Z,21.37
2018-09-09T02:23:59.837Z,21.60
2018-09-09T02:26:31.383Z,20.70
2018-09-09T02:29:02.125Z,23.27
2018-09-09T02:31:33.369Z,22.43
2018-09-09T02:34:04.591Z,22.20
2018-09-09T02:36:35.811Z,22.47
2018-09-09T02:39:09.829Z,21.70
2018-09-09T02:41:41.509Z,24.23
2018-09-09T02:44:12.635Z,23.70
2018-09-09T02:46:44.301Z,22.93
2018-09-09T02:49:15.619Z,23.63
2018-09-09T02:51:47.220Z,23.67
2018-09-09T02:54:17.735Z,23.50
2018-09-09T02:56:48.784Z,23.93
2018-09-09T02:59:21.042Z,23.47
2018-09-09T03:01:52.330Z,22.73
2018-09-09T03:04:23.448Z,22.07
2018-09-09T03:06:54.623Z,24.00
2018-09-09T03:09:26.094Z,23.27
2018-09-09T03:11:57.223Z,22.47
2018-09-09T03:14:28.456Z,24.53
2018-09-09T03:16:59.885Z,23.70
2018-09-09T03:19:31.317Z,23.70
2018-09-09T03:22:02.601Z,25.07
2018-09-09T03:24:34.024Z,24.10
2018-09-09T03:27:05.125Z,24.83
2018-09-09T03:29:36.390Z,25.37
2018-09-09T03:32:06.844Z,26.97
2018-09-09T03:34:37.778Z,25.17
2018-09-09T03:37:08.732Z,25.27
2018-09-09T03:39:40.758Z,26.07
2018-09-09T03:42:12.043Z,25.83
2018-09-09T03:44:43.632Z,24.87
2018-09-09T03:47:15.349Z,24.93
2018-09-09T03:49:46.992Z,24.43
2018-09-09T03:52:18.061Z,30.60
2018-09-09T03:54:49.312Z,31.83
2018-09-09T03:57:20.163Z,31.97
2018-09-09T03:59:51.481Z,31.03
2018-09-09T04:02:23.072Z,32.40
2018-09-09T04:04:54.439Z,31.60
2018-09-09T04:07:25.803Z,31.13
2018-09-09T04:09:56.911Z,29.57
2018-09-09T04:12:28.435Z,28.40
2018-09-09T04:14:59.417Z,29.37
2018-09-09T04:17:31.025Z,28.53
2018-09-09T04:20:02.494Z,28.30
2018-09-09T04:22:33.740Z,27.87
2018-09-09T04:25:05.569Z,28.87
2018-09-09T04:27:37.519Z,28.60
2018-09-09T04:30:08.956Z,29.63
2018-09-09T04:32:40.509Z,28.27
2018-09-09T04:35:11.420Z,26.77
2018-09-09T04:37:42.972Z,28.10
2018-09-09T04:40:14.789Z,28.33
2018-09-09T04:42:46.761Z,28.77
2018-09-09T04:45:17.800Z,30.53
2018-09-09T04:47:49.487Z,30.83
2018-09-09T04:50:21.089Z,29.47
2018-09-09T04:52:52.201Z,29.10
2018-09-09T04:55:23.444Z,27.10
2018-09-09T04:57:55.097Z,26.80
2018-09-09T05:00:27.316Z,27.27
2018-09-09T05:03:00.200Z,27.00
2018-09-09T05:05:31.821Z,24.70
2018-09-09T05:08:03.272Z,26.03
2018-09-09T05:10:34.994Z,24.20
2018-09-09T05:13:06.827Z,22.23
2018-09-09T05:15:38.063Z,22.43
2018-09-09T05:18:09.619Z,22.17
2018-09-09T05:20:41.201Z,21.57
2018-09-09T05:23:12.324Z,20.03
2018-09-09T05:25:44.183Z,18.87
2018-09-09T05:28:15.258Z,19.63
2018-09-09T05:30:45.984Z,20.70
2018-09-09T05:33:17.624Z,19.77
2018-09-09T05:35:48.822Z,20.80
2018-09-09T05:38:20.264Z,18.40
2018-09-09T05:40:52.716Z,20.00
2018-09-09T05:43:24.090Z,17.63
2018-09-09T05:45:55.562Z,18.80
2018-09-09T05:48:26.484Z,18.77
2018-09-09T05:50:58.394Z,18.67
2018-09-09T05:53:29.931Z,17.43
2018-09-09T05:56:01.506Z,18.33
2018-09-09T05:58:33.037Z,16.67
2018-09-09T06:01:04.447Z,18.40
2018-09-09T06:03:36.007Z,19.43
2018-09-09T06:06:07.348Z,17.43
2018-09-09T06:08:39.018Z,17.57
2018-09-09T06:11:10.325Z,18.80
2018-09-09T06:13:41.671Z,17.50
2018-09-09T06:16:13.289Z,17.67
2018-09-09T06:18:44.910Z,16.97
2018-09-09T06:21:16.361Z,17.37
2018-09-09T06:23:48.202Z,17.40
2018-09-09T06:26:19.857Z,17.50
2018-09-09T06:28:50.966Z,17.30
2018-09-09T06:31:23.000Z,14.50
2018-09-09T06:33:53.924Z,17.27
2018-09-09T06:36:25.722Z,14.30
2018-09-09T06:38:57.516Z,14.50
2018-09-09T06:41:28.179Z,15.03
2018-09-09T06:43:58.727Z,14.43
2018-09-09T06:46:29.268Z,14.97
2018-09-09T06:49:00.311Z,15.03
2018-09-09T06:51:31.903Z,15.03
2018-09-09T06:54:02.927Z,13.10
2018-09-09T06:56:34.873Z,14.40
2018-09-09T06:59:05.273Z,14.30
2018-09-09T07:01:36.808Z,14.53
2018-09-09T07:04:07.950Z,12.80
2018-09-09T07:06:39.527Z,13.27
2018-09-09T07:09:11.296Z,12.57
2018-09-09T07:11:42.757Z,13.90
2018-09-09T07:14:13.965Z,14.23
2018-09-09T07:16:44.421Z,11.37
2018-09-09T07:19:15.668Z,12.73
2018-09-09T07:21:46.889Z,12.30
2018-09-09T07:24:18.342Z,12.07
2018-09-09T07:26:49.344Z,12.80
2018-09-09T07:29:20.259Z,11.13
2018-09-09T07:31:51.811Z,13.17
2018-09-09T07:34:23.664Z,13.53
2018-09-09T07:36:55.949Z,12.20
2018-09-09T07:39:27.197Z,12.63
2018-09-09T07:41:58.362Z,13.07
2018-09-09T07:44:29.823Z,11.60
2018-09-09T07:47:00.930Z,13.20
2018-09-09T07:49:32.614Z,11.90
2018-09-09T07:52:03.165Z,11.90
2018-09-09T07:54:34.021Z,11.60
2018-09-09T07:57:04.966Z,10.93
2018-09-09T07:59:36.414Z,11.50
2018-09-09T08:02:06.971Z,11.67
2018-09-09T08:04:37.947Z,11.80
2018-09-09T08:07:09.550Z,10.90
2018-09-09T08:09:41.014Z,11.03
2018-09-09T08:12:11.994Z,11.67
2018-09-09T08:14:43.132Z,10.93
2018-09-09T08:17:14.567Z,9.30
2018-09-09T08:19:45.702Z,10.97
2018-09-09T08:22:16.899Z,11.00
2018-09-09T08:24:48.662Z,10.50
2018-09-09T08:27:19.567Z,10.03
2018-09-09T08:29:51.908Z,10.53
2018-09-09T08:32:24.325Z,10.57
2018-09-09T08:34:55.901Z,11.23
2018-09-09T08:37:27.111Z,10.63
2018-09-09T08:39:58.755Z,11.60
2018-09-09T08:42:29.970Z,11.00
2018-09-09T08:45:01.706Z,12.60
2018-09-09T08:47:33.018Z,11.47
2018-09-09T08:50:04.458Z,9.63
2018-09-09T08:52:36.143Z,9.80
2018-09-09T08:55:08.401Z,8.63
2018-09-09T08:57:40.274Z,9.30
2018-09-09T09:00:11.514Z,9.33
2018-09-09T09:02:42.949Z,8.97
2018-09-09T09:05:14.482Z,9.47
2018-09-09T09:07:45.798Z,10.00
2018-09-09T09:10:17.465Z,10.10
2018-09-09T09:12:48.497Z,9.30
2018-09-09T09:15:20.132Z,9.37
2018-09-09T09:17:51.770Z,9.63
2018-09-09T09:20:23.471Z,10.10
2018-09-09T09:22:54.703Z,9.50
2018-09-09T09:25:26.015Z,9.73
2018-09-09T09:27:57.374Z,9.40
2018-09-09T09:30:28.745Z,9.17
2018-09-09T09:32:59.742Z,9.07
2018-09-09T09:35:36.484Z,8.60
2018-09-09T09:38:07.353Z,8.60
2018-09-09T09:40:38.932Z,8.40
2018-09-09T09:43:11.054Z,8.97
2018-09-09T09:45:42.733Z,8.40
2018-09-09T09:48:15.547Z,8.67
2018-09-09T09:50:47.127Z,8.80
2018-09-09T09:53:18.904Z,8.77
2018-09-09T09:55:50.643Z,7.73
2018-09-09T09:58:22.448Z,8.50
2018-09-09T10:00:59.838Z,8.20
2018-09-09T10:03:31.351Z,8.33
2018-09-09T10:06:03.194Z,8.10
2018-09-09T10:08:35.094Z,9.20
2018-09-09T10:11:07.369Z,8.03
2018-09-09T10:13:39.861Z,8.47
2018-09-09T10:16:10.827Z,8.80
2018-09-09T10:18:41.949Z,9.00
2018-09-09T10:21:13.786Z,8.60
2018-09-09T10:23:45.576Z,9.20
2018-09-09T10:26:17.522Z,7.80
2018-09-09T10:28:49.467Z,8.97
2018-09-09T10:31:21.285Z,8.23
2018-09-09T10:33:53.241Z,8.10
2018-09-09T10:36:23.692Z,8.13
2018-09-09T10:38:55.188Z,7.73
2018-09-09T10:41:27.373Z,7.97
2018-09-09T10:43:58.861Z,7.67
2018-09-09T10:46:30.072Z,8.70
2018-09-09T10:49:02.435Z,9.07
2018-09-09T10:51:33.059Z,8.63
2018-09-09T10:54:04.614Z,8.80
2018-09-09T10:56:36.144Z,9.37
2018-09-09T10:59:07.828Z,8.57
2018-09-09T11:01:38.686Z,7.57
2018-09-09T11:04:09.954Z,8.83
2018-09-09T11:06:41.266Z,8.70
2018-09-09T11:09:13.293Z,8.80
2018-09-09T11:11:44.839Z,8.90
2018-09-09T11:14:16.289Z,8.60
2018-09-09T11:16:47.597Z,8.93
2018-09-09T11:19:19.159Z,8.50
2018-09-09T11:21:50.677Z,9.00
2018-09-09T11:24:22.727Z,8.50
2018-09-09T11:26:54.251Z,8.57
2018-09-09T11:29:24.672Z,8.40
2018-09-09T11:31:56.358Z,8.60
2018-09-09T11:34:26.724Z,8.50
2018-09-09T11:36:58.792Z,8.50
2018-09-09T11:39:30.013Z,8.77
2018-09-09T11:42:01.368Z,8.10
2018-09-09T11:44:33.072Z,7.30
2018-09-09T11:47:04.629Z,7.73
2018-09-09T11:49:36.326Z,7.97
2018-09-09T11:52:08.393Z,8.57
2018-09-09T11:54:40.694Z,7.87
2018-09-09T11:57:12.036Z,8.10
2018-09-09T11:59:43.730Z,8.77
2018-09-09T12:02:15.449Z,7.87
2018-09-09T12:04:46.688Z,8.28
2018-09-09T12:07:17.164Z,8.25
2018-09-09T12:09:48.196Z,8.20
2018-09-09T12:12:20.043Z,8.20
2018-09-09T12:14:51.502Z,8.70
2018-09-09T12:17:22.654Z,8.20
2018-09-09T12:19:54.470Z,8.80
2018-09-09T12:22:25.826Z,8.15
2018-09-09T12:24:57.322Z,8.10
2018-09-09T12:27:28.741Z,7.80
2018-09-09T12:29:59.552Z,8.65
2018-09-09T12:32:31.225Z,8.58
2018-09-09T12:35:01.591Z,8.25
2018-09-09T12:37:32.414Z,8.33
2018-09-09T12:40:03.707Z,8.65
2018-09-09T12:42:35.037Z,7.42
2018-09-09T12:45:11.091Z,7.97
2018-09-09T12:47:46.801Z,8.25
2018-09-09T12:50:18.108Z,7.37
2018-09-09T12:52:49.488Z,7.58
2018-09-09T12:55:20.676Z,7.78
2018-09-09T12:57:51.112Z,8.70
2018-09-09T13:00:22.480Z,8.48
2018-09-09T13:02:53.895Z,8.57
2018-09-09T13:05:25.173Z,9.03
2018-09-09T13:07:56.779Z,8.20
2018-09-09T13:10:27.817Z,8.25
2018-09-09T13:13:03.911Z,9.23
2018-09-09T13:15:35.053Z,9.05
2018-09-09T13:18:06.252Z,10.27
2018-09-09T13:20:37.513Z,9.77
2018-09-09T13:23:08.777Z,8.70
2018-09-09T13:25:39.965Z,8.87
2018-09-09T13:28:11.315Z,7.93
2018-09-09T13:30:43.053Z,8.07
2018-09-09T13:33:14.419Z,8.07
2018-09-09T13:35:45.653Z,8.63
2018-09-09T13:38:16.831Z,8.45
2018-09-09T13:40:47.950Z,8.13
2018-09-09T13:43:19.064Z,8.98
2018-09-09T13:45:50.906Z,8.03
2018-09-09T13:48:22.614Z,7.97
2018-09-09T13:50:54.237Z,8.35
2018-09-09T13:53:25.919Z,7.95
2018-09-09T13:55:57.676Z,8.28
2018-09-09T13:58:29.290Z,8.73
2018-09-09T14:01:00.477Z,8.93
2018-09-09T14:03:32.097Z,8.43
2018-09-09T14:06:03.463Z,8.33
2018-09-09T14:08:34.876Z,8.50
2018-09-09T14:11:05.966Z,8.77
2018-09-09T14:13:38.016Z,8.63
2018-09-09T14:16:09.800Z,9.00
2018-09-09T14:18:41.164Z,8.83
2018-09-09T14:21:13.866Z,8.50
2018-09-09T14:23:44.898Z,9.07
2018-09-09T14:26:16.069Z,8.70
2018-09-09T14:28:47.622Z,8.80
2018-09-09T14:31:19.147Z,8.77
2018-09-09T14:33:50.597Z,8.57
2018-09-09T14:36:21.783Z,8.90
2018-09-09T14:38:53.089Z,8.20
2018-09-09T14:41:24.337Z,8.93
2018-09-09T14:43:56.054Z,9.33
2018-09-09T14:46:27.493Z,8.47
2018-09-09T14:48:59.185Z,8.67
2018-09-09T14:51:30.133Z,8.43
2018-09-09T14:54:01.976Z,8.53
2018-09-09T14:56:34.013Z,8.67
2018-09-09T14:59:05.527Z,8.50
2018-09-09T15:01:37.116Z,9.30
2018-09-09T15:04:08.549Z,9.43
2018-09-09T15:06:40.212Z,8.67
2018-09-09T15:09:12.868Z,8.07
2018-09-09T15:11:44.243Z,8.53
2018-09-09T15:14:15.740Z,8.07
2018-09-09T15:16:47.350Z,8.47
2018-09-09T15:19:18.805Z,8.87
2018-09-09T15:21:50.371Z,7.93
2018-09-09T15:24:20.555Z,7.87
2018-09-09T15:26:52.885Z,8.07
2018-09-09T15:29:24.007Z,7.87
2018-09-09T15:31:55.402Z,7.43
2018-09-09T15:34:26.149Z,8.63
2018-09-09T15:36:57.485Z,9.07
2018-09-09T15:39:28.391Z,8.93
2018-09-09T15:42:00.207Z,8.53
2018-09-09T15:44:31.851Z,8.60
2018-09-09T15:47:03.050Z,9.83
2018-09-09T15:49:34.495Z,9.77
2018-09-09T15:52:05.834Z,9.60
2018-09-09T15:54:36.347Z,8.93
2018-09-09T15:57:07.629Z,9.90
2018-09-09T15:59:38.184Z,10.07
2018-09-09T16:02:09.294Z,9.57
2018-09-09T16:04:41.158Z,10.27
2018-09-09T16:07:12.957Z,10.57
2018-09-09T16:09:44.114Z,9.50
2018-09-09T16:12:15.452Z,9.87
2018-09-09T16:14:45.636Z,9.60
2018-09-09T16:17:16.788Z,10.03
2018-09-09T16:19:47.588Z,10.80
2018-09-09T16:22:19.122Z,10.20
2018-09-09T16:24:50.807Z,9.67
2018-09-09T16:27:24.700Z,10.03
2018-09-09T16:29:56.044Z,9.93
2018-09-09T16:32:27.337Z,10.20
2018-09-09T16:34:57.925Z,10.00
2018-09-09T16:37:28.979Z,10.17
2018-09-09T16:40:00.139Z,10.30
2018-09-09T16:42:31.568Z,10.73
2018-09-09T16:45:03.852Z,9.97
2018-09-09T16:47:34.953Z,10.63
2018-09-09T16:50:06.091Z,10.90
2018-09-09T16:52:37.080Z,10.80
2018-09-09T16:55:08.104Z,11.17
2018-09-09T16:57:39.851Z,11.47
2018-09-09T17:00:11.231Z,11.23
2018-09-09T17:02:42.438Z,11.83
2018-09-09T17:05:13.662Z,11.90
2018-09-09T17:07:45.055Z,11.40
2018-09-09T17:10:16.221Z,10.37
2018-09-09T17:12:48.180Z,10.97
2018-09-09T17:15:19.322Z,11.07
2018-09-09T17:17:50.784Z,12.25
2018-09-09T17:20:21.265Z,10.60
2018-09-09T17:22:53.074Z,10.20
2018-09-09T17:25:24.369Z,9.07
2018-09-09T17:27:54.637Z,9.50
2018-09-09T17:30:24.891Z,8.87
2018-09-09T17:32:55.081Z,8.07
2018-09-09T17:35:25.145Z,7.83
2018-09-09T17:37:55.401Z,7.57
2018-09-09T17:40:25.388Z,7.20
2018-09-09T17:42:55.721Z,7.37
2018-09-09T17:45:25.994Z,7.53
2018-09-09T17:47:56.258Z,7.40
2018-09-09T17:50:26.367Z,7.10
2018-09-09T17:52:57.616Z,7.80
2018-09-09T17:55:27.809Z,7.43
2018-09-09T17:57:57.893Z,7.40
2018-09-09T18:00:28.025Z,6.93
2018-09-09T18:02:58.111Z,6.53
2018-09-09T18:05:28.334Z,6.60
2018-09-09T18:07:58.535Z,6.27
2018-09-09T18:10:28.826Z,6.90
2018-09-09T18:12:58.911Z,7.03
2018-09-09T18:15:29.112Z,7.13
2018-09-09T18:17:59.463Z,7.77
2018-09-09T18:20:29.657Z,7.30
2018-09-09T18:22:59.829Z,7.40
2018-09-09T18:25:30.019Z,7.20
2018-09-09T18:28:00.320Z,7.20
2018-09-09T18:30:30.573Z,6.77
2018-09-09T18:33:00.632Z,6.50
2018-09-09T18:35:30.836Z,6.80
2018-09-09T18:38:00.951Z,7.10
2018-09-09T18:40:31.240Z,6.73
2018-09-09T18:43:01.595Z,7.20
2018-09-09T18:45:31.833Z,6.77
2018-09-09T18:48:02.089Z,6.83
2018-09-09T18:50:32.500Z,6.80
2018-09-09T18:53:02.808Z,7.27
2018-09-09T18:55:33.184Z,7.75
2018-09-09T18:58:03.424Z,6.53
2018-09-09T19:00:33.441Z,7.07
2018-09-09T19:03:03.721Z,6.77
2018-09-09T19:05:34.154Z,6.60
2018-09-09T19:08:04.336Z,7.17
2018-09-09T19:10:34.548Z,6.90
2018-09-09T19:13:04.865Z,6.90
2018-09-09T19:15:35.133Z,7.33
2018-09-09T19:18:05.470Z,6.73
2018-09-09T19:20:36.406Z,7.10
2018-09-09T19:23:06.965Z,8.87
2018-09-09T19:25:37.382Z,8.30
2018-09-09T19:28:07.846Z,8.87
2018-09-09T19:30:38.400Z,8.20
2018-09-09T19:33:08.797Z,8.83
2018-09-09T19:35:39.215Z,7.83
2018-09-09T19:38:09.587Z,7.90
2018-09-09T19:40:39.938Z,8.33
2018-09-09T19:43:10.191Z,8.47
2018-09-09T19:45:41.300Z,9.73
2018-09-09T19:48:11.835Z,10.20
2018-09-09T19:50:41.832Z,10.37
2018-09-09T19:53:12.190Z,11.60
2018-09-09T19:55:42.498Z,12.40
2018-09-09T19:58:12.804Z,12.47
2018-09-09T20:00:42.944Z,11.67
2018-09-09T20:03:13.458Z,12.13
2018-09-09T20:05:43.733Z,11.30
2018-09-09T20:08:14.084Z,11.13
2018-09-09T20:10:44.508Z,10.53
2018-09-09T20:13:15.111Z,9.97
2018-09-09T20:15:45.345Z,9.23
2018-09-09T20:18:16.045Z,11.43
2018-09-09T20:20:46.556Z,11.10
2018-09-09T20:23:16.992Z,10.17
2018-09-09T20:25:47.321Z,10.03
2018-09-09T20:28:17.485Z,9.27
2018-09-09T20:30:47.642Z,9.07
2018-09-09T20:33:17.945Z,8.73
2018-09-09T20:35:48.038Z,8.73
2018-09-09T20:38:18.140Z,8.53
2018-09-09T20:40:48.238Z,8.30
2018-09-09T20:43:18.444Z,9.03
2018-09-09T20:45:48.571Z,9.50
2018-09-09T20:48:18.933Z,8.63
2018-09-09T20:50:49.268Z,9.67
2018-09-09T20:53:19.723Z,9.83
2018-09-09T20:55:50.226Z,10.13
2018-09-09T20:58:20.657Z,9.50
2018-09-09T21:03:25.245Z,9.43
2018-09-09T21:05:56.978Z,9.57
2018-09-09T21:08:28.577Z,9.67
2018-09-09T21:10:59.603Z,9.97
2018-09-09T21:13:30.539Z,10.20
2018-09-09T21:16:02.338Z,11.23
2018-09-09T21:18:34.153Z,10.30
2018-09-09T21:21:06.113Z,10.23
2018-09-09T21:23:37.999Z,11.50
2018-09-09T21:26:09.689Z,10.17
2018-09-09T21:28:41.422Z,10.00
2018-09-09T21:31:13.519Z,9.80
2018-09-09T21:33:45.228Z,8.83
2018-09-09T21:36:16.610Z,10.17
2018-09-09T21:38:49.303Z,9.37
2018-09-09T21:41:20.721Z,9.20
2018-09-09T21:43:52.785Z,9.20
2018-09-09T21:46:24.368Z,9.53
2018-09-09T21:48:55.914Z,9.37
2018-09-09T21:51:27.645Z,10.10
2018-09-09T21:53:59.170Z,9.37
2018-09-09T21:56:30.697Z,8.43
2018-09-09T21:59:01.302Z,8.50
2018-09-09T22:01:38.880Z,8.60
2018-09-09T22:04:10.836Z,8.67
2018-09-09T22:06:42.441Z,8.33
2018-09-09T22:09:14.214Z,9.00
2018-09-09T22:11:45.079Z,8.90
2018-09-09T22:14:16.894Z,8.60
2018-09-09T22:16:48.390Z,8.43
2018-09-09T22:19:19.611Z,9.07
2018-09-09T22:21:51.043Z,9.30
2018-09-09T22:24:22.292Z,9.10
2018-09-09T22:26:53.790Z,9.60
2018-09-09T22:29:25.054Z,10.27
2018-09-09T22:31:55.678Z,9.80
2018-09-09T22:34:27.081Z,9.57
2018-09-09T22:36:57.358Z,9.33
2018-09-09T22:39:28.724Z,9.27
2018-09-09T22:41:59.748Z,9.67
2018-09-09T22:44:31.556Z,9.63
2018-09-09T22:47:02.595Z,9.20
2018-09-09T22:49:33.847Z,10.10
2018-09-09T22:52:05.220Z,9.67
2018-09-09T22:54:37.161Z,9.70
2018-09-09T22:57:08.885Z,10.47
2018-09-09T22:59:40.299Z,9.77
2018-09-09T23:02:10.688Z,10.73
2018-09-09T23:04:41.936Z,10.90
2018-09-09T23:07:13.221Z,10.17
2018-09-09T23:09:44.907Z,11.13
2018-09-09T23:12:16.090Z,10.73
2018-09-09T23:14:47.380Z,10.57
2018-09-09T23:17:18.918Z,11.17
2018-09-09T23:19:50.987Z,10.53
2018-09-09T23:22:22.738Z,11.63
2018-09-09T23:24:54.493Z,10.67
2018-09-09T23:27:25.868Z,10.60
2018-09-09T23:29:56.886Z,9.73
2018-09-09T23:32:27.125Z,9.97
2018-09-09T23:34:58.139Z,9.97
2018-09-09T23:37:29.225Z,10.03
2018-09-09T23:40:00.802Z,11.10
2018-09-09T23:42:32.095Z,10.47
2018-09-09T23:45:03.352Z,9.93
2018-09-09T23:47:34.634Z,10.57
2018-09-09T23:50:05.857Z,12.23
2018-09-09T23:52:36.912Z,14.40
2018-09-09T23:55:08.345Z,14.70
2018-09-09T23:57:39.307Z,13.03
